createdAt,value
2016-11-28T00:00:45.348Z,0
2016-11-28T00:01:44.696Z,0
2016-11-28T00:02:45.266Z,0
2016-11-28T00:03:45.223Z,0
2016-11-28T00:04:45.181Z,0
2016-11-28T00:05:45.138Z,0
2016-11-28T00:06:44.793Z,0
2016-11-28T00:07:45.085Z,0
2016-11-28T00:08:45.015Z,0
2016-11-28T00:09:45.188Z,0
2016-11-28T00:10:44.636Z,0
2016-11-28T00:11:44.598Z,0
2016-11-28T00:12:44.248Z,0
2016-11-28T00:13:44.821Z,0
2016-11-28T00:14:44.466Z,0
2016-11-28T00:15:44.733Z,0
2016-11-28T00:16:44.380Z,0
2016-11-28T00:17:44.344Z,0
2016-11-28T00:18:44.606Z,0
2016-11-28T00:19:44.565Z,0
2016-11-28T00:20:43.913Z,0
2016-11-28T00:21:44.177Z,0
2016-11-28T00:22:44.442Z,0
2016-11-28T00:23:44.097Z,0
2016-11-28T00:24:44.357Z,0
2016-11-28T00:25:44.316Z,0
2016-11-28T00:26:43.969Z,0
2016-11-28T00:27:44.237Z,0
2016-11-28T00:28:43.889Z,0
2016-11-28T00:29:43.851Z,0
2016-11-28T00:30:44.113Z,0
2016-11-28T00:31:44.078Z,0
2016-11-28T00:32:44.026Z,0
2016-11-28T00:33:43.710Z,0
2016-11-28T00:34:43.639Z,0
2016-11-28T00:35:43.632Z,0
2016-11-28T00:36:43.559Z,0
2016-11-28T00:37:43.517Z,0
2016-11-28T00:38:43.779Z,0
2016-11-28T00:39:43.735Z,0
2016-11-28T00:40:43.700Z,0
2016-11-28T00:41:43.658Z,0
2016-11-28T00:42:43.613Z,0
2016-11-28T00:43:43.579Z,0
2016-11-28T00:44:43.233Z,0
2016-11-28T00:45:43.494Z,0
2016-11-28T00:46:43.449Z,0
2016-11-28T00:47:43.110Z,0
2016-11-28T00:48:43.365Z,0
2016-11-28T00:49:42.722Z,0
2016-11-28T00:50:42.686Z,0
2016-11-28T00:51:43.241Z,0
2016-11-28T00:52:43.203Z,0
2016-11-28T00:53:42.554Z,0
2016-11-28T00:54:42.816Z,0
2016-11-28T00:55:42.772Z,0
2016-11-28T00:56:42.731Z,0
2016-11-28T00:57:42.686Z,0
2016-11-28T00:58:42.950Z,0
2016-11-28T00:59:42.908Z,0
2016-11-28T01:00:42.865Z,0
2016-11-28T01:01:42.249Z,0
2016-11-28T01:02:42.480Z,0
2016-11-28T01:03:42.443Z,0
2016-11-28T01:04:42.702Z,0
2016-11-28T01:05:42.658Z,0
2016-11-28T01:06:42.623Z,0
2016-11-28T01:07:42.580Z,0
2016-11-28T01:08:42.543Z,0
2016-11-28T01:09:42.191Z,0
2016-11-28T01:10:42.157Z,0
2016-11-28T01:11:42.413Z,0
2016-11-28T01:12:42.374Z,0
2016-11-28T01:13:42.327Z,0
2016-11-28T01:14:42.288Z,0
2016-11-28T01:15:42.277Z,0
2016-11-28T01:16:42.204Z,0
2016-11-28T01:17:42.159Z,0
2016-11-28T01:18:41.820Z,0
2016-11-28T01:19:42.114Z,0
2016-11-28T01:20:42.038Z,0
2016-11-28T01:21:41.995Z,0
2016-11-28T01:22:41.955Z,0
2016-11-28T01:23:41.613Z,0
2016-11-28T01:24:41.874Z,0
2016-11-28T01:25:41.546Z,0
2016-11-28T01:26:41.189Z,0
2016-11-28T01:27:41.748Z,0
2016-11-28T01:28:41.703Z,0
2016-11-28T01:29:41.668Z,0
2016-11-28T01:30:41.320Z,0
2016-11-28T01:31:41.280Z,0
2016-11-28T01:32:41.241Z,0
2016-11-28T01:33:41.509Z,0
2016-11-28T01:34:41.459Z,0
2016-11-28T01:35:41.115Z,0
2016-11-28T01:36:41.071Z,0
2016-11-28T01:37:41.349Z,0
2016-11-28T01:38:41.294Z,0
2016-11-28T01:39:41.248Z,0
2016-11-28T01:40:40.906Z,0
2016-11-28T01:41:40.864Z,0
2016-11-28T01:42:40.826Z,0
2016-11-28T01:43:40.780Z,0
2016-11-28T01:44:40.464Z,0
2016-11-28T01:45:40.698Z,0
2016-11-28T01:46:40.958Z,0
2016-11-28T01:47:40.613Z,0
2016-11-28T01:48:40.876Z,0
2016-11-28T01:49:40.528Z,0
2016-11-28T01:50:40.501Z,0
2016-11-28T01:51:40.453Z,0
2016-11-28T01:52:40.712Z,0
2016-11-28T01:53:40.668Z,0
2016-11-28T01:54:39.714Z,0
2016-11-28T01:55:40.583Z,0
2016-11-28T01:56:40.543Z,0
2016-11-28T01:57:40.503Z,0
2016-11-28T01:58:40.459Z,0
2016-11-28T01:59:40.123Z,0
2016-11-28T02:00:40.376Z,0
2016-11-28T02:01:40.332Z,0
2016-11-28T02:02:40.296Z,0
2016-11-28T02:03:39.651Z,0
2016-11-28T02:04:40.208Z,0
2016-11-28T02:05:40.168Z,0
2016-11-28T02:06:39.822Z,0
2016-11-28T02:07:40.089Z,0
2016-11-28T02:08:39.744Z,0
2016-11-28T02:09:40.002Z,0
2016-11-28T02:10:39.961Z,0
2016-11-28T02:11:39.613Z,0
2016-11-28T02:12:39.875Z,0
2016-11-28T02:13:39.532Z,0
2016-11-28T02:14:39.798Z,0
2016-11-28T02:15:39.462Z,0
2016-11-28T02:16:39.405Z,0
2016-11-28T02:17:39.366Z,0
2016-11-28T02:18:39.019Z,0
2016-11-28T02:19:38.979Z,0
2016-11-28T02:20:39.240Z,0
2016-11-28T02:21:39.199Z,0
2016-11-28T02:22:39.159Z,0
2016-11-28T02:23:39.421Z,0
2016-11-28T02:24:39.075Z,0
2016-11-28T02:25:39.334Z,0
2016-11-28T02:26:38.689Z,0
2016-11-28T02:27:39.248Z,0
2016-11-28T02:28:38.912Z,0
2016-11-28T02:29:39.184Z,0
2016-11-28T02:30:39.130Z,0
2016-11-28T02:31:39.085Z,0
2016-11-28T02:32:38.739Z,0
2016-11-28T02:33:38.702Z,0
2016-11-28T02:34:38.660Z,0
2016-11-28T02:35:38.647Z,0
2016-11-28T02:36:38.581Z,0
2016-11-28T02:37:38.544Z,0
2016-11-28T02:38:38.820Z,0
2016-11-28T02:39:38.147Z,0
2016-11-28T02:40:38.717Z,0
2016-11-28T02:41:38.667Z,0
2016-11-28T02:42:38.627Z,0
2016-11-28T02:43:37.985Z,0
2016-11-28T02:44:38.545Z,0
2016-11-28T02:45:38.202Z,0
2016-11-28T02:46:38.462Z,0
2016-11-28T02:47:38.131Z,0
2016-11-28T02:48:38.075Z,0
2016-11-28T02:49:38.038Z,0
2016-11-28T02:50:38.298Z,0
2016-11-28T02:51:37.646Z,0
2016-11-28T02:52:37.906Z,0
2016-11-28T02:53:37.866Z,0
2016-11-28T02:54:37.829Z,0
2016-11-28T02:55:37.518Z,0
2016-11-28T02:56:38.077Z,0
2016-11-28T02:57:38.018Z,0
2016-11-28T02:58:37.964Z,0
2016-11-28T02:59:37.923Z,0
2016-11-28T03:00:37.876Z,0
2016-11-28T03:01:37.837Z,0
2016-11-28T03:02:37.491Z,0
2016-11-28T03:03:37.757Z,0
2016-11-28T03:04:37.111Z,0
2016-11-28T03:05:37.068Z,0
2016-11-28T03:06:37.628Z,0
2016-11-28T03:07:37.589Z,0
2016-11-28T03:08:36.974Z,0
2016-11-28T03:09:36.901Z,0
2016-11-28T03:10:37.164Z,0
2016-11-28T03:11:37.121Z,0
2016-11-28T03:12:37.386Z,0
2016-11-28T03:13:37.032Z,0
2016-11-28T03:14:37.294Z,0
2016-11-28T03:15:36.957Z,0
2016-11-28T03:16:36.911Z,0
2016-11-28T03:17:36.870Z,0
2016-11-28T03:18:36.827Z,0
2016-11-28T03:19:37.087Z,0
2016-11-28T03:20:36.440Z,0
2016-11-28T03:21:36.706Z,0
2016-11-28T03:22:36.969Z,0
2016-11-28T03:23:36.618Z,0
2016-11-28T03:24:36.576Z,0
2016-11-28T03:25:36.837Z,0
2016-11-28T03:26:36.496Z,0
2016-11-28T03:27:36.752Z,0
2016-11-28T03:28:36.407Z,0
2016-11-28T03:29:36.090Z,0
2016-11-28T03:30:36.631Z,0
2016-11-28T03:31:36.593Z,0
2016-11-28T03:32:36.540Z,0
2016-11-28T03:33:36.506Z,0
2016-11-28T03:34:36.460Z,0
2016-11-28T03:35:36.112Z,0
2016-11-28T03:36:36.376Z,0
2016-11-28T03:37:36.340Z,0
2016-11-28T03:38:36.298Z,0
2016-11-28T03:39:36.252Z,0
2016-11-28T03:40:36.210Z,0
2016-11-28T03:41:35.872Z,0
2016-11-28T03:42:35.820Z,0
2016-11-28T03:43:35.788Z,0
2016-11-28T03:44:36.047Z,0
2016-11-28T03:45:36.008Z,0
2016-11-28T03:46:35.653Z,0
2016-11-28T03:47:35.921Z,0
2016-11-28T03:48:35.899Z,0
2016-11-28T03:49:35.530Z,0
2016-11-28T03:50:35.795Z,0
2016-11-28T03:51:35.447Z,0
2016-11-28T03:52:35.403Z,0
2016-11-28T03:53:35.668Z,0
2016-11-28T03:54:35.626Z,0
2016-11-28T03:55:35.579Z,0
2016-11-28T03:56:35.237Z,0
2016-11-28T03:57:35.495Z,0
2016-11-28T03:58:35.154Z,0
2016-11-28T03:59:35.407Z,0
2016-11-28T04:00:35.372Z,0
2016-11-28T04:01:35.026Z,0
2016-11-28T04:02:35.313Z,0
2016-11-28T04:03:35.242Z,0
2016-11-28T04:04:35.200Z,0
2016-11-28T04:05:35.156Z,0
2016-11-28T04:06:34.818Z,0
2016-11-28T04:07:35.073Z,0
2016-11-28T04:08:35.037Z,0
2016-11-28T04:09:34.389Z,0
2016-11-28T04:10:34.954Z,0
2016-11-28T04:11:34.607Z,0
2016-11-28T04:12:34.559Z,0
2016-11-28T04:13:34.519Z,0
2016-11-28T04:14:34.785Z,0
2016-11-28T04:15:34.435Z,0
2016-11-28T04:16:34.700Z,0
2016-11-28T04:17:34.354Z,0
2016-11-28T04:18:34.613Z,0
2016-11-28T04:19:34.592Z,0
2016-11-28T04:20:34.524Z,0
2016-11-28T04:21:34.183Z,0
2016-11-28T04:22:34.440Z,0
2016-11-28T04:23:34.397Z,0
2016-11-28T04:24:33.750Z,0
2016-11-28T04:25:34.012Z,0
2016-11-28T04:26:33.972Z,0
2016-11-28T04:27:33.925Z,0
2016-11-28T04:28:34.200Z,0
2016-11-28T04:29:34.141Z,0
2016-11-28T04:30:33.799Z,0
2016-11-28T04:31:33.759Z,0
2016-11-28T04:32:33.410Z,0
2016-11-28T04:33:33.676Z,0
2016-11-28T04:34:33.648Z,0
2016-11-28T04:35:33.593Z,0
2016-11-28T04:36:33.243Z,0
2016-11-28T04:37:33.510Z,0
2016-11-28T04:38:33.763Z,0
2016-11-28T04:39:33.722Z,0
2016-11-28T04:40:33.373Z,0
2016-11-28T04:41:33.635Z,0
2016-11-28T04:42:33.296Z,0
2016-11-28T04:43:33.553Z,0
2016-11-28T04:44:33.209Z,0
2016-11-28T04:45:33.165Z,0
2016-11-28T04:46:33.427Z,0
2016-11-28T04:47:33.080Z,0
2016-11-28T04:48:33.335Z,0
2016-11-28T04:49:32.993Z,0
2016-11-28T04:50:33.283Z,0
2016-11-28T04:51:32.915Z,0
2016-11-28T04:52:32.562Z,0
2016-11-28T04:53:33.129Z,0
2016-11-28T04:54:32.778Z,0
2016-11-28T04:55:33.045Z,0
2016-11-28T04:56:32.698Z,0
2016-11-28T04:57:32.959Z,0
2016-11-28T04:58:32.618Z,0
2016-11-28T04:59:32.569Z,0
2016-11-28T05:00:32.532Z,0
2016-11-28T05:01:32.783Z,0
2016-11-28T05:02:32.775Z,0
2016-11-28T05:03:32.701Z,0
2016-11-28T05:04:32.658Z,0
2016-11-28T05:05:32.630Z,0
2016-11-28T05:06:31.968Z,0
2016-11-28T05:07:32.231Z,0
2016-11-28T05:08:32.185Z,0
2016-11-28T05:09:32.153Z,0
2016-11-28T05:10:32.104Z,0
2016-11-28T05:11:32.367Z,0
2016-11-28T05:12:32.325Z,0
2016-11-28T05:13:31.674Z,0
2016-11-28T05:14:31.633Z,0
2016-11-28T05:15:32.192Z,0
2016-11-28T05:16:32.148Z,0
2016-11-28T05:17:31.509Z,0
2016-11-28T05:18:31.759Z,0
2016-11-28T05:19:31.722Z,0
2016-11-28T05:20:31.685Z,0
2016-11-28T05:21:31.937Z,0
2016-11-28T05:22:31.590Z,0
2016-11-28T05:23:31.555Z,0
2016-11-28T05:24:31.808Z,0
2016-11-28T05:25:31.814Z,0
2016-11-28T05:26:31.421Z,0
2016-11-28T05:27:31.073Z,0
2016-11-28T05:28:31.638Z,0
2016-11-28T05:29:31.596Z,0
2016-11-28T05:30:31.252Z,0
2016-11-28T05:31:30.602Z,0
2016-11-28T05:32:31.166Z,0
2016-11-28T05:33:30.817Z,0
2016-11-28T05:34:31.389Z,0
2016-11-28T05:35:31.061Z,0
2016-11-28T05:36:31.299Z,0
2016-11-28T05:37:31.257Z,0
2016-11-28T05:38:31.209Z,0
2016-11-28T05:39:30.870Z,0
2016-11-28T05:40:31.127Z,0
2016-11-28T05:41:31.084Z,0
2016-11-28T05:42:30.742Z,0
2016-11-28T05:43:30.995Z,0
2016-11-28T05:44:30.958Z,0
2016-11-28T05:45:30.911Z,0
2016-11-28T05:46:30.874Z,0
2016-11-28T05:47:30.523Z,0
2016-11-28T05:48:30.183Z,0
2016-11-28T05:49:30.739Z,0
2016-11-28T05:50:30.391Z,0
2016-11-28T05:51:30.353Z,0
2016-11-28T05:52:30.007Z,0
2016-11-28T05:53:29.962Z,0
2016-11-28T05:54:30.526Z,0
2016-11-28T05:55:30.190Z,0
2016-11-28T05:56:30.440Z,0
2016-11-28T05:57:30.397Z,0
2016-11-28T05:58:29.748Z,0
2016-11-28T05:59:30.012Z,0
2016-11-28T06:00:29.667Z,0
2016-11-28T06:01:30.230Z,0
2016-11-28T06:02:29.881Z,0
2016-11-28T06:03:29.235Z,0
2016-11-28T06:04:29.799Z,0
2016-11-28T06:05:29.751Z,0
2016-11-28T06:06:29.713Z,4
2016-11-28T06:07:29.975Z,4
2016-11-28T06:08:29.963Z,4
2016-11-28T06:09:29.890Z,0
2016-11-28T06:10:29.544Z,4
2016-11-28T06:11:29.504Z,4
2016-11-28T06:12:29.453Z,4
2016-11-28T06:13:29.723Z,4
2016-11-28T06:14:28.767Z,4
2016-11-28T06:15:29.033Z,4
2016-11-28T06:16:29.585Z,8
2016-11-28T06:17:29.242Z,8
2016-11-28T06:18:29.497Z,12
2016-11-28T06:19:29.159Z,12
2016-11-28T06:20:28.810Z,16
2016-11-28T06:21:29.075Z,20
2016-11-28T06:22:28.729Z,24
2016-11-28T06:23:28.990Z,24
2016-11-28T06:24:28.943Z,28
2016-11-28T06:25:29.201Z,36
2016-11-28T06:26:28.860Z,44
2016-11-28T06:27:28.813Z,48
2016-11-28T06:28:28.777Z,60
2016-11-28T06:29:29.034Z,68
2016-11-28T06:30:28.387Z,80
2016-11-28T06:31:28.944Z,92
2016-11-28T06:32:28.901Z,104
2016-11-28T06:33:28.578Z,120
2016-11-28T06:34:28.818Z,140
2016-11-28T06:35:28.472Z,156
2016-11-28T06:36:28.733Z,176
2016-11-28T06:37:28.692Z,200
2016-11-28T06:38:28.344Z,224
2016-11-28T06:39:28.596Z,252
2016-11-28T06:40:28.556Z,276
2016-11-28T06:41:28.211Z,308
2016-11-28T06:42:28.166Z,336
2016-11-28T06:43:28.445Z,364
2016-11-28T06:44:28.088Z,396
2016-11-28T06:45:28.344Z,436
2016-11-28T06:46:28.297Z,468
2016-11-28T06:47:28.262Z,508
2016-11-28T06:48:27.914Z,544
2016-11-28T06:49:27.872Z,580
2016-11-28T06:50:28.132Z,624
2016-11-28T06:51:27.487Z,668
2016-11-28T06:52:27.745Z,712
2016-11-28T06:53:27.731Z,756
2016-11-28T06:54:27.952Z,804
2016-11-28T06:55:27.926Z,860
2016-11-28T06:56:27.872Z,980
2016-11-28T06:57:27.831Z,1208
2016-11-28T06:58:27.786Z,1452
2016-11-28T06:59:27.446Z,1808
2016-11-28T07:00:27.394Z,1076
2016-11-28T07:01:27.658Z,2304
2016-11-28T07:02:27.312Z,2596
2016-11-28T07:03:27.268Z,2376
2016-11-28T07:04:27.226Z,1400
2016-11-28T07:05:27.498Z,2412
2016-11-28T07:06:27.443Z,2572
2016-11-28T07:07:27.408Z,2744
2016-11-28T07:08:27.062Z,2948
2016-11-28T07:09:27.014Z,3196
2016-11-28T07:10:26.972Z,3260
2016-11-28T07:11:26.934Z,3452
2016-11-28T07:12:26.584Z,3820
2016-11-28T07:13:26.849Z,3924
2016-11-28T07:14:26.800Z,4116
2016-11-28T07:15:26.760Z,4388
2016-11-28T07:16:27.017Z,4772
2016-11-28T07:17:26.972Z,4940
2016-11-28T07:18:26.962Z,4944
2016-11-28T07:19:26.892Z,5476
2016-11-28T07:20:26.544Z,5288
2016-11-28T07:21:26.809Z,5952
2016-11-28T07:22:26.472Z,6084
2016-11-28T07:23:26.724Z,6616
2016-11-28T07:24:26.386Z,6800
2016-11-28T07:25:26.350Z,7124
2016-11-28T07:26:26.002Z,7324
2016-11-28T07:27:26.255Z,7596
2016-11-28T07:28:26.214Z,7764
2016-11-28T07:29:26.175Z,7876
2016-11-28T07:30:26.431Z,8216
2016-11-28T07:31:26.086Z,8456
2016-11-28T07:32:26.049Z,8684
2016-11-28T07:33:26.009Z,8704
2016-11-28T07:34:25.969Z,8948
2016-11-28T07:35:25.624Z,9332
2016-11-28T07:36:26.187Z,9572
2016-11-28T07:37:25.844Z,9708
2016-11-28T07:38:25.814Z,10004
2016-11-28T07:39:25.466Z,10020
2016-11-28T07:40:25.722Z,10580
2016-11-28T07:41:25.988Z,10804
2016-11-28T07:42:25.978Z,11156
2016-11-28T07:43:25.603Z,11160
2016-11-28T07:44:25.867Z,11304
2016-11-28T07:45:25.821Z,11720
2016-11-28T07:46:25.781Z,12228
2016-11-28T07:47:25.443Z,12372
2016-11-28T07:48:25.708Z,13020
2016-11-28T07:49:25.361Z,15712
2016-11-28T07:50:25.022Z,20512
2016-11-28T07:51:25.585Z,28064
2016-11-28T07:52:25.549Z,24320
2016-11-28T07:53:25.502Z,25024
2016-11-28T07:54:25.160Z,26112
2016-11-28T07:55:25.130Z,27648
2016-11-28T07:56:25.387Z,27712
2016-11-28T07:57:25.385Z,24352
2016-11-28T07:58:25.309Z,24288
2016-11-28T07:59:24.965Z,27616
2016-11-28T08:00:25.224Z,33696
2016-11-28T08:01:25.188Z,29504
2016-11-28T08:02:25.151Z,29888
2016-11-28T08:03:25.123Z,30272
2016-11-28T08:04:24.776Z,27808
2016-11-28T08:05:24.732Z,29216
2016-11-28T08:06:24.997Z,29920
2016-11-28T08:07:24.355Z,30624
2016-11-28T08:08:24.619Z,31488
2016-11-28T08:09:24.575Z,32512
2016-11-28T08:10:24.541Z,32160
2016-11-28T08:11:24.806Z,28768
2016-11-28T08:12:24.464Z,36000
2016-11-28T08:13:24.424Z,35392
2016-11-28T08:14:24.694Z,33056
2016-11-28T08:15:24.344Z,38208
2016-11-28T08:16:24.613Z,33760
2016-11-28T08:17:24.579Z,37120
2016-11-28T08:18:24.543Z,38752
2016-11-28T08:19:24.502Z,36512
2016-11-28T08:20:24.463Z,33952
2016-11-28T08:21:23.818Z,33728
2016-11-28T08:22:24.094Z,36288
2016-11-28T08:23:23.746Z,38816
2016-11-28T08:24:23.705Z,38976
2016-11-28T08:25:23.997Z,38272
2016-11-28T08:26:23.636Z,38944
2016-11-28T08:27:24.204Z,39232
2016-11-28T08:28:24.188Z,39872
2016-11-28T08:29:24.119Z,39872
2016-11-28T08:30:24.082Z,38752
2016-11-28T08:31:24.049Z,39552
2016-11-28T08:32:23.711Z,40640
2016-11-28T08:33:23.971Z,41024
2016-11-28T08:34:23.633Z,43008
2016-11-28T08:35:23.897Z,43328
2016-11-28T08:36:23.862Z,41728
2016-11-28T08:37:23.521Z,40640
2016-11-28T08:38:23.486Z,41120
2016-11-28T08:39:23.753Z,42272
2016-11-28T08:40:23.425Z,43840
2016-11-28T08:41:23.074Z,44320
2016-11-28T08:42:23.639Z,42848
2016-11-28T08:43:23.610Z,44576
2016-11-28T08:44:23.577Z,45952
2016-11-28T08:45:23.242Z,46432
2016-11-28T08:46:23.498Z,45120
2016-11-28T08:47:22.554Z,43456
2016-11-28T08:48:23.420Z,42272
2016-11-28T08:49:23.381Z,42208
2016-11-28T08:50:23.059Z,44608
2016-11-28T08:51:23.011Z,45216
2016-11-28T08:52:23.487Z,44608
2016-11-28T08:53:22.932Z,46144
2016-11-28T08:54:23.202Z,47296
2016-11-28T08:55:22.872Z,47712
2016-11-28T08:56:23.130Z,45312
2016-11-28T08:57:22.795Z,46048
2016-11-28T08:58:23.062Z,47040
2016-11-28T08:59:22.734Z,46272
2016-11-28T09:00:22.998Z,45248
2016-11-28T09:01:22.651Z,45568
2016-11-28T09:02:22.929Z,46496
2016-11-28T09:03:22.305Z,47904
2016-11-28T09:04:22.846Z,46976
2016-11-28T09:05:22.206Z,46272
2016-11-28T09:06:22.779Z,47072
2016-11-28T09:07:22.441Z,47424
2016-11-28T09:08:22.433Z,46592
2016-11-28T09:09:22.682Z,44992
2016-11-28T09:10:22.637Z,45248
2016-11-28T09:11:22.595Z,45408
2016-11-28T09:12:22.568Z,46208
2016-11-28T09:13:22.223Z,46752
2016-11-28T09:14:22.191Z,48672
2016-11-28T09:15:22.151Z,49792
2016-11-28T09:16:22.118Z,49600
2016-11-28T09:17:22.387Z,49568
2016-11-28T09:18:22.045Z,48640
2016-11-28T09:19:22.320Z,47968
2016-11-28T09:20:21.981Z,48800
2016-11-28T09:21:22.248Z,49312
2016-11-28T09:22:21.929Z,48768
2016-11-28T09:23:22.178Z,48672
2016-11-28T09:24:21.838Z,49600
2016-11-28T09:25:21.807Z,49344
2016-11-28T09:26:22.062Z,48160
2016-11-28T09:27:22.035Z,47360
2016-11-28T09:28:21.694Z,46816
2016-11-28T09:29:21.968Z,46688
2016-11-28T09:30:21.931Z,47680
2016-11-28T09:31:21.895Z,48480
2016-11-28T09:32:21.259Z,49120
2016-11-28T09:33:21.524Z,48064
2016-11-28T09:34:21.794Z,47840
2016-11-28T09:35:21.791Z,49024
2016-11-28T09:36:21.426Z,49824
2016-11-28T09:37:21.690Z,49184
2016-11-28T09:38:21.359Z,46208
2016-11-28T09:39:21.036Z,45152
2016-11-28T09:40:21.285Z,45920
2016-11-28T09:41:21.572Z,48352
2016-11-28T09:42:20.911Z,48608
2016-11-28T09:43:20.878Z,50880
2016-11-28T09:44:21.148Z,52000
2016-11-28T09:45:21.110Z,50656
2016-11-28T09:46:20.776Z,49280
2016-11-28T09:47:20.743Z,48352
2016-11-28T09:48:20.709Z,48672
2016-11-28T09:49:21.282Z,48288
2016-11-28T09:50:21.246Z,47168
2016-11-28T09:51:20.605Z,45600
2016-11-28T09:52:20.876Z,39808
2016-11-28T09:53:21.147Z,27456
2016-11-28T09:54:21.109Z,22336
2016-11-28T09:55:20.779Z,21760
2016-11-28T09:56:20.744Z,20704
2016-11-28T09:57:21.009Z,20896
2016-11-28T09:58:20.369Z,21088
2016-11-28T09:59:20.339Z,20864
2016-11-28T10:00:20.303Z,20896
2016-11-28T10:01:20.267Z,20864
2016-11-28T10:02:20.536Z,20896
2016-11-28T10:03:20.519Z,20864
2016-11-28T10:04:20.471Z,21024
2016-11-28T10:05:20.435Z,20960
2016-11-28T10:06:20.403Z,21056
2016-11-28T10:07:20.067Z,21120
2016-11-28T10:08:20.631Z,21088
2016-11-28T10:09:20.606Z,21152
2016-11-28T10:10:20.573Z,21088
2016-11-28T10:11:20.231Z,21120
2016-11-28T10:12:19.592Z,21056
2016-11-28T10:13:20.462Z,21056
2016-11-28T10:14:20.142Z,21120
2016-11-28T10:15:20.098Z,20928
2016-11-28T10:16:20.363Z,20992
2016-11-28T10:17:20.027Z,20832
2016-11-28T10:18:20.299Z,20864
2016-11-28T10:19:19.953Z,20960
2016-11-28T10:20:20.224Z,20864
2016-11-28T10:21:20.189Z,20992
2016-11-28T10:22:20.160Z,21376
2016-11-28T10:23:19.521Z,21728
2016-11-28T10:24:20.087Z,21952
2016-11-28T10:25:19.448Z,22016
2016-11-28T10:26:19.410Z,22304
2016-11-28T10:27:19.680Z,21856
2016-11-28T10:28:19.952Z,10792
2016-11-28T10:29:19.917Z,22368
2016-11-28T10:30:19.600Z,23328
2016-11-28T10:31:19.859Z,28864
2016-11-28T10:32:19.555Z,37184
2016-11-28T10:33:19.785Z,39936
2016-11-28T10:34:19.754Z,41760
2016-11-28T10:35:19.417Z,41344
2016-11-28T10:36:19.696Z,43360
2016-11-28T10:37:19.652Z,43168
2016-11-28T10:38:19.617Z,40608
2016-11-28T10:39:18.977Z,41920
2016-11-28T10:40:19.246Z,44224
2016-11-28T10:41:19.214Z,43872
2016-11-28T10:42:19.478Z,44160
2016-11-28T10:43:19.460Z,46432
2016-11-28T10:44:19.416Z,45184
2016-11-28T10:45:18.782Z,44224
2016-11-28T10:46:19.352Z,45632
2016-11-28T10:47:19.007Z,48480
2016-11-28T10:48:19.275Z,48832
2016-11-28T10:49:18.940Z,47040
2016-11-28T10:50:19.243Z,54976
2016-11-28T10:51:18.867Z,55936
2016-11-28T10:52:18.835Z,41920
2016-11-28T10:53:19.101Z,22048
2016-11-28T10:54:19.073Z,48672
2016-11-28T10:55:19.033Z,32352
2016-11-28T10:56:19.003Z,41536
2016-11-28T10:57:18.661Z,39168
2016-11-28T10:58:18.321Z,29536
2016-11-28T10:59:18.919Z,20512
2016-11-28T11:00:18.875Z,19520
2016-11-28T11:01:20.276Z,18304
2016-11-28T11:02:18.481Z,17920
2016-11-28T11:03:18.456Z,17856
2016-11-28T11:04:18.715Z,18688
2016-11-28T11:05:18.683Z,19744
2016-11-28T11:06:18.655Z,19744
2016-11-28T11:07:18.310Z,20000
2016-11-28T11:08:18.283Z,18880
2016-11-28T11:09:18.547Z,17888
2016-11-28T11:10:17.597Z,16800
2016-11-28T11:11:17.870Z,15960
2016-11-28T11:12:18.139Z,15680
2016-11-28T11:13:18.101Z,15384
2016-11-28T11:14:18.370Z,16364
2016-11-28T11:15:18.023Z,18176
2016-11-28T11:16:18.298Z,17632
2016-11-28T11:17:17.660Z,15596
2016-11-28T11:18:18.225Z,14444
2016-11-28T11:19:18.178Z,14160
2016-11-28T11:20:18.144Z,14132
2016-11-28T11:21:17.809Z,14012
2016-11-28T11:22:18.074Z,15776
2016-11-28T11:23:17.431Z,16228
2016-11-28T11:24:17.996Z,13892
2016-11-28T11:25:17.961Z,13212
2016-11-28T11:26:17.926Z,12728
2016-11-28T11:27:17.581Z,12240
2016-11-28T11:28:17.848Z,11784
2016-11-28T11:29:17.814Z,11288
2016-11-28T11:30:17.177Z,10948
2016-11-28T11:31:17.735Z,10576
2016-11-28T11:32:17.091Z,10272
2016-11-28T11:33:17.661Z,9964
2016-11-28T11:34:17.016Z,9724
2016-11-28T11:35:17.286Z,9512
2016-11-28T11:36:17.242Z,9360
2016-11-28T11:37:17.504Z,9228
2016-11-28T11:38:17.471Z,9044
2016-11-28T11:39:17.428Z,8872
2016-11-28T11:40:17.388Z,8780
2016-11-28T11:41:17.350Z,8656
2016-11-28T11:42:17.008Z,8532
2016-11-28T11:43:17.268Z,8360
2016-11-28T11:44:16.927Z,8256
2016-11-28T11:45:16.889Z,8200
2016-11-28T11:46:16.855Z,8084
2016-11-28T11:47:17.121Z,7960
2016-11-28T11:48:17.079Z,7820
2016-11-28T11:49:17.036Z,7720
2016-11-28T11:50:16.688Z,7636
2016-11-28T11:51:16.353Z,7548
2016-11-28T11:52:16.921Z,7436
2016-11-28T11:53:16.573Z,7344
2016-11-28T11:54:16.833Z,7252
2016-11-28T11:55:16.793Z,7120
2016-11-28T11:56:16.753Z,6964
2016-11-28T11:57:16.412Z,6816
2016-11-28T11:58:16.670Z,6612
2016-11-28T11:59:15.724Z,6392
2016-11-28T12:00:16.288Z,6056
2016-11-28T12:01:16.552Z,5596
2016-11-28T12:02:16.206Z,5176
2016-11-28T12:03:16.468Z,4904
2016-11-28T12:04:16.431Z,4812
2016-11-28T12:05:16.392Z,4780
2016-11-28T12:06:16.048Z,4752
2016-11-28T12:07:16.305Z,4724
2016-11-28T12:08:15.968Z,4692
2016-11-28T12:09:15.627Z,4656
2016-11-28T12:10:16.189Z,4624
2016-11-28T12:11:15.848Z,4580
2016-11-28T12:12:15.508Z,4548
2016-11-28T12:13:16.092Z,4520
2016-11-28T12:14:15.419Z,4484
2016-11-28T12:15:15.688Z,4464
2016-11-28T12:16:15.344Z,4436
2016-11-28T12:17:15.600Z,4416
2016-11-28T12:18:15.563Z,4384
2016-11-28T12:19:15.838Z,4352
2016-11-28T12:20:15.475Z,4320
2016-11-28T12:21:15.435Z,4284
2016-11-28T12:22:15.701Z,4256
2016-11-28T12:23:15.359Z,4228
2016-11-28T12:24:15.010Z,4188
2016-11-28T12:25:15.573Z,4164
2016-11-28T12:26:15.231Z,4128
2016-11-28T12:27:15.194Z,4096
2016-11-28T12:28:15.453Z,4072
2016-11-28T12:29:15.102Z,4044
2016-11-28T12:30:33.686Z,4016
2016-11-28T12:31:15.037Z,4008
2016-11-28T12:32:14.998Z,3992
2016-11-28T12:33:14.937Z,3972
2016-11-28T12:34:14.911Z,3968
2016-11-28T12:35:15.163Z,3956
2016-11-28T12:36:14.829Z,3944
2016-11-28T12:37:15.077Z,3936
2016-11-28T12:38:15.038Z,3928
2016-11-28T12:39:14.392Z,3920
2016-11-28T12:40:14.054Z,3920
2016-11-28T12:41:14.307Z,3916
2016-11-28T12:42:14.270Z,3916
2016-11-28T12:43:14.831Z,3916
2016-11-28T12:44:14.793Z,3904
2016-11-28T12:45:14.752Z,3888
2016-11-28T12:46:14.409Z,3876
2016-11-28T12:47:14.364Z,3876
2016-11-28T12:48:14.329Z,3872
2016-11-28T12:49:13.981Z,3868
2016-11-28T12:50:14.553Z,3864
2016-11-28T12:51:14.504Z,3856
2016-11-28T12:52:14.159Z,3828
2016-11-28T12:53:14.415Z,3828
2016-11-28T12:54:14.077Z,3816
2016-11-28T12:55:13.744Z,3804
2016-11-28T12:56:14.294Z,3808
2016-11-28T12:57:13.947Z,3812
2016-11-28T12:58:13.909Z,3800
2016-11-28T12:59:14.170Z,3784
2016-11-28T13:00:14.130Z,3784
2016-11-28T13:01:14.083Z,3768
2016-11-28T13:02:14.043Z,3768
2016-11-28T13:03:14.003Z,3756
2016-11-28T13:04:13.960Z,3752
2016-11-28T13:05:13.920Z,3752
2016-11-28T13:06:13.878Z,3744
2016-11-28T13:07:13.834Z,3736
2016-11-28T13:08:13.493Z,3736
2016-11-28T13:09:13.752Z,3720
2016-11-28T13:10:13.717Z,3708
2016-11-28T13:11:13.672Z,3708
2016-11-28T13:12:13.628Z,3688
2016-11-28T13:13:13.290Z,3660
2016-11-28T13:14:13.251Z,3644
2016-11-28T13:15:13.210Z,3624
2016-11-28T13:16:13.188Z,3616
2016-11-28T13:17:13.445Z,3596
2016-11-28T13:18:13.082Z,3588
2016-11-28T13:19:12.736Z,3580
2016-11-28T13:20:12.694Z,3568
2016-11-28T13:21:12.951Z,3556
2016-11-28T13:22:12.612Z,3544
2016-11-28T13:23:12.582Z,3544
2016-11-28T13:24:12.833Z,3528
2016-11-28T13:25:12.490Z,3520
2016-11-28T13:26:12.444Z,3500
2016-11-28T13:27:13.005Z,3484
2016-11-28T13:28:12.969Z,3472
2016-11-28T13:29:12.623Z,3456
2016-11-28T13:30:12.883Z,3444
2016-11-28T13:31:12.843Z,3432
2016-11-28T13:32:12.498Z,3420
2016-11-28T13:33:12.459Z,3404
2016-11-28T13:34:12.110Z,3396
2016-11-28T13:35:12.674Z,3384
2016-11-28T13:36:12.629Z,3372
2016-11-28T13:37:12.589Z,3364
2016-11-28T13:38:12.243Z,3352
2016-11-28T13:39:11.904Z,3332
2016-11-28T13:40:12.165Z,3320
2016-11-28T13:41:12.123Z,3304
2016-11-28T13:42:12.380Z,3292
2016-11-28T13:43:12.345Z,3272
2016-11-28T13:44:11.705Z,3256
2016-11-28T13:45:12.261Z,3244
2016-11-28T13:46:12.219Z,3224
2016-11-28T13:47:11.575Z,3212
2016-11-28T13:48:11.833Z,3196
2016-11-28T13:49:11.787Z,3176
2016-11-28T13:50:12.055Z,3164